sensor_id;sensor_type;location;lat;lon;timestamp;P1;durP1;ratioP1;P2;durP2;ratioP2
483;SDS011;228;48.922;12.198;2023-06-04T04:00:27;2.20;;;1.97;;
483;SDS011;228;48.922;12.198;2023-06-04T04:02:56;2.93;;;1.60;;
483;SDS011;228;48.922;12.198;2023-06-04T04:05:26;2.30;;;1.60;;
483;SDS011;228;48.922;12.198;2023-06-04T04:07:53;2.40;;;1.80;;
483;SDS011;228;48.922;12.198;2023-06-04T04:10:24;2.27;;;1.80;;
483;SDS011;228;48.922;12.198;2023-06-04T04:12:50;2.30;;;1.80;;
483;SDS011;228;48.922;12.198;2023-06-04T04:15:19;2.27;;;1.70;;
483;SDS011;228;48.922;12.198;2023-06-04T04:17:45;2.17;;;1.97;;
483;SDS011;228;48.922;12.198;2023-06-04T04:20:11;5.50;;;1.87;;
483;SDS011;228;48.922;12.198;2023-06-04T04:22:43;2.50;;;1.80;;
483;SDS011;228;48.922;12.198;2023-06-04T04:25:11;2.87;;;1.90;;
483;SDS011;228;48.922;12.198;2023-06-04T04:27:38;2.33;;;1.60;;
483;SDS011;228;48.922;12.198;2023-06-04T04:30:08;4.03;;;1.97;;
483;SDS011;228;48.922;12.198;2023-06-04T04:32:36;2.53;;;1.70;;
483;SDS011;228;48.922;12.198;2023-06-04T04:35:06;3.60;;;1.60;;
483;SDS011;228;48.922;12.198;2023-06-04T04:37:36;2.37;;;1.60;;
483;SDS011;228;48.922;12.198;2023-06-04T04:40:04;5.60;;;1.70;;
483;SDS011;228;48.922;12.198;2023-06-04T04:42:35;2.17;;;1.70;;
483;SDS011;228;48.922;12.198;2023-06-04T04:45:03;2.13;;;1.93;;
483;SDS011;228;48.922;12.198;2023-06-04T04:47:31;2.03;;;1.80;;
483;SDS011;228;48.922;12.198;2023-06-04T04:49:57;2.00;;;1.80;;
483;SDS011;228;48.922;12.198;2023-06-04T04:52:24;2.50;;;1.60;;
483;SDS011;228;48.922;12.198;2023-06-04T04:54:50;3.07;;;1.90;;
483;SDS011;228;48.922;12.198;2023-06-04T04:57:22;2.07;;;1.80;;
483;SDS011;228;48.922;12.198;2023-06-04T04:59:51;2.67;;;1.77;;
483;SDS011;228;48.922;12.198;2023-06-04T05:02:17;3.33;;;2.10;;
483;SDS011;228;48.922;12.198;2023-06-04T05:04:43;2.00;;;1.60;;
483;SDS011;228;48.922;12.198;2023-06-04T05:07:10;2.90;;;1.40;;
483;SDS011;228;48.922;12.198;2023-06-04T05:09:36;3.00;;;1.70;;
483;SDS011;228;48.922;12.198;2023-06-04T05:12:03;4.50;;;1.70;;
483;SDS011;228;48.922;12.198;2023-06-04T05:14:30;2.93;;;1.93;;
483;SDS011;228;48.922;12.198;2023-06-04T05:16:57;3.13;;;1.97;;
483;SDS011;228;48.922;12.198;2023-06-04T05:19:24;2.03;;;1.70;;
483;SDS011;228;48.922;12.198;2023-06-04T05:21:50;3.20;;;1.70;;
483;SDS011;228;48.922;12.198;2023-06-04T05:24:17;2.40;;;1.60;;
483;SDS011;228;48.922;12.198;2023-06-04T05:26:43;2.43;;;1.70;;
483;SDS011;228;48.922;12.198;2023-06-04T05:29:15;3.17;;;1.83;;
483;SDS011;228;48.922;12.198;2023-06-04T05:31:43;1.60;;;1.50;;
483;SDS011;228;48.922;12.198;2023-06-04T05:34:12;2.53;;;1.90;;
483;SDS011;228;48.922;12.198;2023-06-04T05:36:42;2.67;;;1.67;;
483;SDS011;228;48.922;12.198;2023-06-04T05:39:11;2.63;;;1.70;;
483;SDS011;228;48.922;12.198;2023-06-04T05:41:46;2.57;;;2.00;;
483;SDS011;228;48.922;12.198;2023-06-04T05:44:13;2.53;;;1.70;;
483;SDS011;228;48.922;12.198;2023-06-04T05:46:39;3.03;;;1.63;;
483;SDS011;228;48.922;12.198;2023-06-04T05:49:06;2.27;;;1.90;;
483;SDS011;228;48.922;12.198;2023-06-04T05:51:32;3.10;;;2.00;;
483;SDS011;228;48.922;12.198;2023-06-04T05:53:58;3.50;;;1.83;;
483;SDS011;228;48.922;12.198;2023-06-04T05:56:24;2.37;;;1.80;;
483;SDS011;228;48.922;12.198;2023-06-04T05:58:52;3.43;;;1.90;;
483;SDS011;228;48.922;12.198;2023-06-04T06:01:20;3.17;;;1.90;;
483;SDS011;228;48.922;12.198;2023-06-04T06:03:47;2.87;;;1.90;;
483;SDS011;228;48.922;12.198;2023-06-04T06:06:13;6.40;;;1.87;;
483;SDS011;228;48.922;12.198;2023-06-04T06:08:39;3.17;;;1.97;;
483;SDS011;228;48.922;12.198;2023-06-04T06:11:06;3.43;;;1.90;;
483;SDS011;228;48.922;12.198;2023-06-04T06:13:34;1.63;;;1.50;;
483;SDS011;228;48.922;12.198;2023-06-04T06:16:01;4.17;;;1.70;;
483;SDS011;228;48.922;12.198;2023-06-04T06:18:28;3.20;;;2.00;;
483;SDS011;228;48.922;12.198;2023-06-04T06:20:56;2.73;;;2.00;;
483;SDS011;228;48.922;12.198;2023-06-04T06:23:22;1.80;;;1.70;;
483;SDS011;228;48.922;12.198;2023-06-04T06:25:49;3.03;;;1.87;;
483;SDS011;228;48.922;12.198;2023-06-04T06:28:22;4.83;;;1.70;;
483;SDS011;228;48.922;12.198;2023-06-04T06:30:49;2.30;;;1.83;;
483;SDS011;228;48.922;12.198;2023-06-04T06:33:16;2.33;;;1.80;;
483;SDS011;228;48.922;12.198;2023-06-04T06:35:41;6.47;;;1.70;;
483;SDS011;228;48.922;12.198;2023-06-04T06:38:08;1.90;;;1.70;;
483;SDS011;228;48.922;12.198;2023-06-04T06:40:34;3.07;;;2.00;;
483;SDS011;228;48.922;12.198;2023-06-04T06:43:00;1.97;;;1.80;;
483;SDS011;228;48.922;12.198;2023-06-04T06:45:26;3.73;;;2.27;;
483;SDS011;228;48.922;12.198;2023-06-04T06:47:52;2.70;;;2.00;;
483;SDS011;228;48.922;12.198;2023-06-04T06:50:18;2.93;;;1.73;;
483;SDS011;228;48.922;12.198;2023-06-04T06:52:44;2.33;;;1.97;;
483;SDS011;228;48.922;12.198;2023-06-04T06:55:10;2.43;;;1.80;;
483;SDS011;228;48.922;12.198;2023-06-04T06:57:36;4.35;;;1.90;;
483;SDS011;228;48.922;12.198;2023-06-04T07:00:02;4.18;;;1.73;;
483;SDS011;228;48.922;12.198;2023-06-04T07:02:31;2.55;;;2.10;;
483;SDS011;228;48.922;12.198;2023-06-04T07:04:57;5.40;;;1.92;;
483;SDS011;228;48.922;12.198;2023-06-04T07:07:23;4.65;;;1.92;;
483;SDS011;228;48.922;12.198;2023-06-04T07:09:49;3.25;;;2.17;;
483;SDS011;228;48.922;12.198;2023-06-04T07:12:15;3.15;;;2.10;;
483;SDS011;228;48.922;12.198;2023-06-04T07:14:42;4.30;;;2.00;;
483;SDS011;228;48.922;12.198;2023-06-04T07:17:08;2.95;;;2.00;;
483;SDS011;228;48.922;12.198;2023-06-04T07:19:34;7.95;;;2.10;;
483;SDS011;228;48.922;12.198;2023-06-04T07:22:00;2.30;;;1.95;;
483;SDS011;228;48.922;12.198;2023-06-04T07:24:26;3.15;;;2.08;;
483;SDS011;228;48.922;12.198;2023-06-04T07:26:52;2.17;;;1.90;;
483;SDS011;228;48.922;12.198;2023-06-04T07:29:18;3.80;;;1.92;;
483;SDS011;228;48.922;12.198;2023-06-04T07:31:44;2.55;;;1.90;;
483;SDS011;228;48.922;12.198;2023-06-04T07:34:10;2.08;;;1.88;;
483;SDS011;228;48.922;12.198;2023-06-04T07:36:36;2.05;;;1.85;;
483;SDS011;228;48.922;12.198;2023-06-04T07:39:02;4.65;;;1.98;;
483;SDS011;228;48.922;12.198;2023-06-04T07:41:31;2.63;;;1.88;;
483;SDS011;228;48.922;12.198;2023-06-04T07:43:57;2.95;;;1.90;;
483;SDS011;228;48.922;12.198;2023-06-04T07:46:23;3.05;;;2.00;;
483;SDS011;228;48.922;12.198;2023-06-04T07:48:49;2.35;;;1.92;;
483;SDS011;228;48.922;12.198;2023-06-04T07:51:15;2.72;;;2.05;;
483;SDS011;228;48.922;12.198;2023-06-04T07:53:41;2.17;;;1.90;;
483;SDS011;228;48.922;12.198;2023-06-04T07:56:07;2.17;;;1.98;;
483;SDS011;228;48.922;12.198;2023-06-04T07:58:33;4.43;;;1.80;;
483;SDS011;228;48.922;12.198;2023-06-04T08:00:59;2.72;;;2.10;;
483;SDS011;228;48.922;12.198;2023-06-04T08:03:25;4.25;;;1.90;;
483;SDS011;228;48.922;12.198;2023-06-04T08:05:51;3.00;;;2.17;;
483;SDS011;228;48.922;12.198;2023-06-04T08:08:18;4.20;;;2.00;;
483;SDS011;228;48.922;12.198;2023-06-04T08:10:44;4.97;;;2.00;;
483;SDS011;228;48.922;12.198;2023-06-04T08:13:10;2.95;;;2.10;;
483;SDS011;228;48.922;12.198;2023-06-04T08:15:36;3.45;;;2.08;;
483;SDS011;228;48.922;12.198;2023-06-04T08:18:22;2.03;;;1.80;;
483;SDS011;228;48.922;12.198;2023-06-04T08:21:10;3.58;;;2.20;;
483;SDS011;228;48.922;12.198;2023-06-04T08:23:57;2.30;;;1.80;;
483;SDS011;228;48.922;12.198;2023-06-04T08:26:43;2.95;;;2.20;;
483;SDS011;228;48.922;12.198;2023-06-04T08:29:16;2.00;;;1.83;;
483;SDS011;228;48.922;12.198;2023-06-04T08:31:45;4.18;;;2.28;;
483;SDS011;228;48.922;12.198;2023-06-04T08:34:22;4.30;;;2.17;;
483;SDS011;228;48.922;12.198;2023-06-04T08:36:48;3.70;;;2.00;;
483;SDS011;228;48.922;12.198;2023-06-04T08:39:14;2.10;;;1.90;;
483;SDS011;228;48.922;12.198;2023-06-04T08:41:44;2.35;;;2.13;;
483;SDS011;228;48.922;12.198;2023-06-04T08:44:18;3.63;;;2.20;;
483;SDS011;228;48.922;12.198;2023-06-04T08:46:44;3.05;;;2.10;;
483;SDS011;228;48.922;12.198;2023-06-04T08:49:12;4.78;;;1.90;;
483;SDS011;228;48.922;12.198;2023-06-04T08:51:39;3.15;;;1.95;;
483;SDS011;228;48.922;12.198;2023-06-04T08:54:06;2.30;;;2.10;;
483;SDS011;228;48.922;12.198;2023-06-04T08:56:34;2.80;;;2.20;;
483;SDS011;228;48.922;12.198;2023-06-04T08:59:07;2.80;;;2.08;;
483;SDS011;228;48.922;12.198;2023-06-04T09:01:36;2.30;;;2.10;;
483;SDS011;228;48.922;12.198;2023-06-04T09:04:05;2.63;;;2.30;;
483;SDS011;228;48.922;12.198;2023-06-04T09:06:35;3.22;;;2.45;;
483;SDS011;228;48.922;12.198;2023-06-04T09:09:03;2.47;;;2.17;;
483;SDS011;228;48.922;12.198;2023-06-04T09:11:39;2.45;;;2.20;;
483;SDS011;228;48.922;12.198;2023-06-04T09:14:14;2.00;;;1.80;;
483;SDS011;228;48.922;12.198;2023-06-04T09:16:48;3.00;;;2.20;;
483;SDS011;228;48.922;12.198;2023-06-04T09:19:17;2.30;;;2.10;;
483;SDS011;228;48.922;12.198;2023-06-04T09:24:24;2.97;;;2.13;;
483;SDS011;228;48.922;12.198;2023-06-04T09:27:11;2.83;;;2.42;;
483;SDS011;228;48.922;12.198;2023-06-04T09:30:17;2.20;;;2.00;;
483;SDS011;228;48.922;12.198;2023-06-04T09:32:36;2.20;;;2.00;;
483;SDS011;228;48.922;12.198;2023-06-04T09:35:12;2.80;;;2.10;;
483;SDS011;228;48.922;12.198;2023-06-04T09:37:52;6.78;;;2.40;;
483;SDS011;228;48.922;12.198;2023-06-04T09:40:20;2.33;;;2.13;;
483;SDS011;228;48.922;12.198;2023-06-04T09:42:48;2.20;;;2.00;;
483;SDS011;228;48.922;12.198;2023-06-04T09:45:29;3.53;;;2.28;;
483;SDS011;228;48.922;12.198;2023-06-04T09:48:01;3.28;;;2.25;;
483;SDS011;228;48.922;12.198;2023-06-04T09:50:32;4.90;;;2.20;;
483;SDS011;228;48.922;12.198;2023-06-04T09:52:59;3.55;;;2.13;;
483;SDS011;228;48.922;12.198;2023-06-04T09:55:27;2.40;;;2.20;;
483;SDS011;228;48.922;12.198;2023-06-04T09:57:53;3.58;;;2.35;;
483;SDS011;228;48.922;12.198;2023-06-04T10:00:20;3.90;;;2.40;;
483;SDS011;228;48.922;12.198;2023-06-04T10:02:49;3.03;;;2.30;;
483;SDS011;228;48.922;12.198;2023-06-04T10:05:21;3.70;;;2.20;;
483;SDS011;228;48.922;12.198;2023-06-04T10:07:50;3.85;;;2.30;;
483;SDS011;228;48.922;12.198;2023-06-04T10:10:21;2.40;;;2.20;;
483;SDS011;228;48.922;12.198;2023-06-04T10:12:59;2.17;;;2.08;;
483;SDS011;228;48.922;12.198;2023-06-04T10:15:31;4.88;;;2.20;;
483;SDS011;228;48.922;12.198;2023-06-04T10:17:59;2.22;;;1.85;;
483;SDS011;228;48.922;12.198;2023-06-04T10:20:27;2.50;;;2.30;;
483;SDS011;228;48.922;12.198;2023-06-04T10:22:54;3.00;;;2.38;;
483;SDS011;228;48.922;12.198;2023-06-04T10:25:20;2.55;;;2.30;;
483;SDS011;228;48.922;12.198;2023-06-04T10:27:47;3.35;;;2.05;;
483;SDS011;228;48.922;12.198;2023-06-04T10:30:15;3.72;;;2.40;;
483;SDS011;228;48.922;12.198;2023-06-04T10:32:42;3.95;;;2.33;;
483;SDS011;228;48.922;12.198;2023-06-04T10:35:08;2.58;;;2.00;;
483;SDS011;228;48.922;12.198;2023-06-04T10:37:34;5.07;;;2.20;;
483;SDS011;228;48.922;12.198;2023-06-04T10:40:01;3.53;;;2.53;;
483;SDS011;228;48.922;12.198;2023-06-04T10:42:37;2.20;;;2.00;;
483;SDS011;228;48.922;12.198;2023-06-04T10:45:08;3.75;;;2.55;;
483;SDS011;228;48.922;12.198;2023-06-04T10:47:35;3.45;;;2.35;;
483;SDS011;228;48.922;12.198;2023-06-04T10:50:11;2.60;;;2.40;;
483;SDS011;228;48.922;12.198;2023-06-04T10:52:50;2.42;;;2.17;;
483;SDS011;228;48.922;12.198;2023-06-04T10:55:17;4.10;;;2.38;;
483;SDS011;228;48.922;12.198;2023-06-04T11:00:45;2.83;;;2.58;;
483;SDS011;228;48.922;12.198;2023-06-04T11:03:14;3.50;;;2.70;;
483;SDS011;228;48.922;12.198;2023-06-04T11:05:45;3.20;;;2.22;;
483;SDS011;228;48.922;12.198;2023-06-04T11:08:25;5.45;;;2.47;;
483;SDS011;228;48.922;12.198;2023-06-04T11:10:56;3.28;;;2.40;;
483;SDS011;228;48.922;12.198;2023-06-04T11:13:23;2.45;;;2.25;;
483;SDS011;228;48.922;12.198;2023-06-04T11:15:51;2.78;;;2.40;;
483;SDS011;228;48.922;12.198;2023-06-04T11:18:19;4.60;;;2.55;;
483;SDS011;228;48.922;12.198;2023-06-04T11:20:47;2.85;;;2.50;;
483;SDS011;228;48.922;12.198;2023-06-04T11:23:15;4.63;;;2.75;;
483;SDS011;228;48.922;12.198;2023-06-04T11:25:42;4.60;;;2.80;;
483;SDS011;228;48.922;12.198;2023-06-04T11:28:14;3.78;;;2.85;;
483;SDS011;228;48.922;12.198;2023-06-04T11:30:42;3.03;;;2.63;;
483;SDS011;228;48.922;12.198;2023-06-04T11:33:09;2.67;;;2.45;;
483;SDS011;228;48.922;12.198;2023-06-04T11:35:42;4.07;;;2.40;;
483;SDS011;228;48.922;12.198;2023-06-04T11:38:08;3.22;;;2.70;;
483;SDS011;228;48.922;12.198;2023-06-04T11:40:35;2.95;;;2.60;;
483;SDS011;228;48.922;12.198;2023-06-04T11:43:02;3.50;;;2.70;;
483;SDS011;228;48.922;12.198;2023-06-04T11:45:29;3.78;;;2.97;;
483;SDS011;228;48.922;12.198;2023-06-04T11:47:56;3.75;;;2.90;;
483;SDS011;228;48.922;12.198;2023-06-04T11:50:23;3.17;;;2.85;;
483;SDS011;228;48.922;12.198;2023-06-04T11:52:53;3.53;;;2.80;;
483;SDS011;228;48.922;12.198;2023-06-04T11:55:19;3.00;;;2.70;;
483;SDS011;228;48.922;12.198;2023-06-04T11:57:46;3.80;;;3.10;;
483;SDS011;228;48.922;12.198;2023-06-04T12:00:13;3.17;;;2.88;;
483;SDS011;228;48.922;12.198;2023-06-04T12:02:58;3.53;;;2.88;;
483;SDS011;228;48.922;12.198;2023-06-04T12:05:28;4.35;;;3.00;;
483;SDS011;228;48.922;12.198;2023-06-04T12:08:06;3.03;;;2.70;;
483;SDS011;228;48.922;12.198;2023-06-04T12:10:38;3.25;;;2.95;;
483;SDS011;228;48.922;12.198;2023-06-04T12:13:09;3.90;;;3.17;;
483;SDS011;228;48.922;12.198;2023-06-04T12:15:35;3.10;;;2.80;;
483;SDS011;228;48.922;12.198;2023-06-04T12:18:02;3.20;;;2.90;;
483;SDS011;228;48.922;12.198;2023-06-04T12:23:00;4.72;;;3.03;;
483;SDS011;228;48.922;12.198;2023-06-04T12:25:27;3.83;;;3.00;;
483;SDS011;228;48.922;12.198;2023-06-04T12:27:55;5.18;;;2.53;;
483;SDS011;228;48.922;12.198;2023-06-04T12:30:21;3.22;;;2.75;;
483;SDS011;228;48.922;12.198;2023-06-04T12:32:48;3.92;;;3.00;;
483;SDS011;228;48.922;12.198;2023-06-04T12:35:16;3.33;;;2.97;;
483;SDS011;228;48.922;12.198;2023-06-04T12:37:42;3.40;;;3.10;;
483;SDS011;228;48.922;12.198;2023-06-04T12:40:08;3.60;;;2.90;;
483;SDS011;228;48.922;12.198;2023-06-04T12:42:35;3.40;;;3.00;;
483;SDS011;228;48.922;12.198;2023-06-04T12:45:01;3.60;;;2.88;;
483;SDS011;228;48.922;12.198;2023-06-04T12:47:27;5.75;;;3.10;;
483;SDS011;228;48.922;12.198;2023-06-04T12:49:53;3.72;;;2.80;;
483;SDS011;228;48.922;12.198;2023-06-04T12:52:19;5.13;;;3.22;;
483;SDS011;228;48.922;12.198;2023-06-04T12:54:45;3.38;;;3.08;;
483;SDS011;228;48.922;12.198;2023-06-04T12:57:11;3.10;;;2.90;;
483;SDS011;228;48.922;12.198;2023-06-04T12:59:37;3.30;;;3.00;;
483;SDS011;228;48.922;12.198;2023-06-04T13:02:03;3.47;;;3.00;;
483;SDS011;228;48.922;12.198;2023-06-04T13:04:29;3.55;;;3.25;;
483;SDS011;228;48.922;12.198;2023-06-04T13:06:55;3.72;;;2.97;;
483;SDS011;228;48.922;12.198;2023-06-04T13:09:24;3.55;;;3.00;;
483;SDS011;228;48.922;12.198;2023-06-04T13:11:51;2.80;;;2.60;;
483;SDS011;228;48.922;12.198;2023-06-04T13:14:17;4.55;;;2.95;;
483;SDS011;228;48.922;12.198;2023-06-04T13:16:43;5.72;;;3.00;;
483;SDS011;228;48.922;12.198;2023-06-04T13:19:10;4.70;;;3.28;;
483;SDS011;228;48.922;12.198;2023-06-04T13:21:36;3.75;;;3.30;;
483;SDS011;228;48.922;12.198;2023-06-04T13:24:02;3.70;;;3.00;;
483;SDS011;228;48.922;12.198;2023-06-04T13:26:29;3.45;;;3.15;;
483;SDS011;228;48.922;12.198;2023-06-04T13:28:55;4.60;;;2.80;;
483;SDS011;228;48.922;12.198;2023-06-04T13:31:21;3.80;;;3.15;;
483;SDS011;228;48.922;12.198;2023-06-04T13:33:47;4.38;;;3.38;;
483;SDS011;228;48.922;12.198;2023-06-04T13:36:13;4.85;;;3.25;;
483;SDS011;228;48.922;12.198;2023-06-04T13:38:39;3.80;;;3.00;;
483;SDS011;228;48.922;12.198;2023-06-04T13:41:06;3.63;;;3.30;;
483;SDS011;228;48.922;12.198;2023-06-04T13:43:32;3.72;;;3.05;;
483;SDS011;228;48.922;12.198;2023-06-04T13:45:58;3.28;;;3.00;;
483;SDS011;228;48.922;12.198;2023-06-04T13:48:24;3.40;;;3.10;;
483;SDS011;228;48.922;12.198;2023-06-04T13:50:50;3.50;;;3.20;;
483;SDS011;228;48.922;12.198;2023-06-04T13:53:16;4.32;;;3.00;;
483;SDS011;228;48.922;12.198;2023-06-04T13:55:42;4.32;;;3.22;;
483;SDS011;228;48.922;12.198;2023-06-04T13:58:08;5.35;;;3.42;;
483;SDS011;228;48.922;12.198;2023-06-04T14:00:34;3.47;;;3.25;;
483;SDS011;228;48.922;12.198;2023-06-04T14:03:01;4.28;;;3.67;;
483;SDS011;228;48.922;12.198;2023-06-04T14:05:29;4.18;;;3.78;;
483;SDS011;228;48.922;12.198;2023-06-04T14:07:55;3.40;;;3.10;;
483;SDS011;228;48.922;12.198;2023-06-04T14:10:21;3.45;;;3.15;;
483;SDS011;228;48.922;12.198;2023-06-04T14:12:47;3.78;;;3.47;;
483;SDS011;228;48.922;12.198;2023-06-04T14:15:13;3.35;;;3.03;;
483;SDS011;228;48.922;12.198;2023-06-04T14:17:40;3.70;;;3.40;;
483;SDS011;228;48.922;12.198;2023-06-04T14:20:07;3.55;;;3.20;;
483;SDS011;228;48.922;12.198;2023-06-04T14:22:34;3.88;;;3.30;;
483;SDS011;228;48.922;12.198;2023-06-04T14:25:05;3.60;;;3.30;;
483;SDS011;228;48.922;12.198;2023-06-04T14:27:32;3.67;;;3.22;;
483;SDS011;228;48.922;12.198;2023-06-04T14:30:05;4.00;;;3.00;;
483;SDS011;228;48.922;12.198;2023-06-04T14:32:32;3.88;;;3.45;;
483;SDS011;228;48.922;12.198;2023-06-04T14:34:59;3.70;;;3.40;;
483;SDS011;228;48.922;12.198;2023-06-04T14:37:25;3.95;;;3.55;;
483;SDS011;228;48.922;12.198;2023-06-04T14:39:51;4.20;;;3.30;;
483;SDS011;228;48.922;12.198;2023-06-04T14:42:17;3.58;;;3.28;;
483;SDS011;228;48.922;12.198;2023-06-04T14:44:43;3.38;;;2.97;;
483;SDS011;228;48.922;12.198;2023-06-04T14:47:10;3.50;;;3.20;;
483;SDS011;228;48.922;12.198;2023-06-04T14:49:36;4.00;;;3.20;;
483;SDS011;228;48.922;12.198;2023-06-04T14:52:02;3.40;;;3.10;;
483;SDS011;228;48.922;12.198;2023-06-04T14:54:29;3.70;;;3.40;;
483;SDS011;228;48.922;12.198;2023-06-04T14:56:55;3.42;;;3.13;;
483;SDS011;228;48.922;12.198;2023-06-04T14:59:21;4.60;;;3.50;;
483;SDS011;228;48.922;12.198;2023-06-04T15:01:47;3.55;;;3.20;;
483;SDS011;228;48.922;12.198;2023-06-04T15:04:13;4.40;;;3.28;;
483;SDS011;228;48.922;12.198;2023-06-04T15:06:39;5.43;;;3.58;;
483;SDS011;228;48.922;12.198;2023-06-04T15:09:05;3.70;;;3.38;;
483;SDS011;228;48.922;12.198;2023-06-04T15:11:31;4.03;;;3.25;;
483;SDS011;228;48.922;12.198;2023-06-04T15:13:57;3.80;;;3.20;;
483;SDS011;228;48.922;12.198;2023-06-04T15:16:23;3.47;;;3.17;;
483;SDS011;228;48.922;12.198;2023-06-04T15:18:50;3.65;;;3.30;;
483;SDS011;228;48.922;12.198;2023-06-04T15:21:17;4.25;;;3.40;;
483;SDS011;228;48.922;12.198;2023-06-04T15:23:43;3.80;;;3.50;;
483;SDS011;228;48.922;12.198;2023-06-04T15:26:14;4.05;;;3.65;;
483;SDS011;228;48.922;12.198;2023-06-04T15:28:41;4.22;;;3.80;;
483;SDS011;228;48.922;12.198;2023-06-04T15:31:07;3.85;;;3.55;;
483;SDS011;228;48.922;12.198;2023-06-04T15:33:33;3.70;;;3.30;;
483;SDS011;228;48.922;12.198;2023-06-04T15:35:59;3.47;;;3.17;;
483;SDS011;228;48.922;12.198;2023-06-04T15:38:25;4.07;;;3.30;;
483;SDS011;228;48.922;12.198;2023-06-04T15:40:51;6.07;;;3.50;;
483;SDS011;228;48.922;12.198;2023-06-04T15:43:18;4.35;;;3.30;;
483;SDS011;228;48.922;12.198;2023-06-04T15:45:44;3.92;;;3.38;;
483;SDS011;228;48.922;12.198;2023-06-04T15:48:10;3.53;;;3.22;;
483;SDS011;228;48.922;12.198;2023-06-04T15:50:36;3.55;;;3.25;;
483;SDS011;228;48.922;12.198;2023-06-04T15:53:02;5.50;;;3.60;;
483;SDS011;228;48.922;12.198;2023-06-04T15:55:28;4.25;;;3.65;;
483;SDS011;228;48.922;12.198;2023-06-04T15:57:54;3.67;;;3.30;;
483;SDS011;228;48.922;12.198;2023-06-04T16:00:21;3.95;;;3.15;;
483;SDS011;228;48.922;12.198;2023-06-04T16:02:48;3.70;;;3.28;;
483;SDS011;228;48.922;12.198;2023-06-04T16:05:14;5.68;;;3.28;;
483;SDS011;228;48.922;12.198;2023-06-04T16:07:43;4.28;;;3.08;;
483;SDS011;228;48.922;12.198;2023-06-04T16:10:09;5.85;;;3.22;;
483;SDS011;228;48.922;12.198;2023-06-04T16:12:35;4.63;;;3.65;;
483;SDS011;228;48.922;12.198;2023-06-04T16:15:02;3.22;;;2.92;;
483;SDS011;228;48.922;12.198;2023-06-04T16:17:28;3.80;;;3.40;;
483;SDS011;228;48.922;12.198;2023-06-04T16:19:56;4.95;;;3.47;;
483;SDS011;228;48.922;12.198;2023-06-04T16:22:28;3.45;;;3.15;;
483;SDS011;228;48.922;12.198;2023-06-04T16:24:54;3.38;;;3.00;;
483;SDS011;228;48.922;12.198;2023-06-04T16:27:20;5.05;;;3.22;;
483;SDS011;228;48.922;12.198;2023-06-04T16:29:46;4.18;;;3.10;;
483;SDS011;228;48.922;12.198;2023-06-04T16:32:13;3.42;;;3.13;;
483;SDS011;228;48.922;12.198;2023-06-04T16:34:39;3.42;;;2.83;;
483;SDS011;228;48.922;12.198;2023-06-04T16:37:05;3.00;;;2.70;;
483;SDS011;228;48.922;12.198;2023-06-04T16:39:31;3.28;;;2.97;;
483;SDS011;228;48.922;12.198;2023-06-04T16:41:59;4.13;;;2.70;;
483;SDS011;228;48.922;12.198;2023-06-04T16:44:27;3.25;;;2.70;;
483;SDS011;228;48.922;12.198;2023-06-04T16:46:54;4.50;;;2.70;;
483;SDS011;228;48.922;12.198;2023-06-04T16:49:21;3.03;;;2.72;;
483;SDS011;228;48.922;12.198;2023-06-04T16:51:47;4.53;;;3.60;;
483;SDS011;228;48.922;12.198;2023-06-04T16:54:13;5.32;;;3.15;;
483;SDS011;228;48.922;12.198;2023-06-04T16:56:39;4.20;;;2.90;;
483;SDS011;228;48.922;12.198;2023-06-04T16:59:06;4.35;;;2.80;;
483;SDS011;228;48.922;12.198;2023-06-04T17:01:33;3.53;;;3.22;;
483;SDS011;228;48.922;12.198;2023-06-04T17:03:59;4.55;;;3.30;;
483;SDS011;228;48.922;12.198;2023-06-04T17:06:25;3.88;;;2.85;;
483;SDS011;228;48.922;12.198;2023-06-04T17:08:53;3.45;;;3.10;;
483;SDS011;228;48.922;12.198;2023-06-04T17:11:19;3.53;;;2.75;;
483;SDS011;228;48.922;12.198;2023-06-04T17:13:45;3.65;;;2.60;;
483;SDS011;228;48.922;12.198;2023-06-04T17:16:11;4.68;;;2.88;;
483;SDS011;228;48.922;12.198;2023-06-04T17:18:38;2.65;;;2.40;;
483;SDS011;228;48.922;12.198;2023-06-04T17:21:04;3.08;;;2.50;;
483;SDS011;228;48.922;12.198;2023-06-04T17:23:30;2.50;;;2.30;;
483;SDS011;228;48.922;12.198;2023-06-04T17:25:56;3.15;;;2.75;;
483;SDS011;228;48.922;12.198;2023-06-04T17:28:24;3.88;;;2.85;;
483;SDS011;228;48.922;12.198;2023-06-04T17:30:51;3.05;;;2.70;;
483;SDS011;228;48.922;12.198;2023-06-04T17:33:17;4.38;;;2.80;;
483;SDS011;228;48.922;12.198;2023-06-04T17:35:43;3.58;;;2.72;;
483;SDS011;228;48.922;12.198;2023-06-04T17:38:09;3.40;;;2.60;;
483;SDS011;228;48.922;12.198;2023-06-04T17:40:35;6.10;;;3.10;;
483;SDS011;228;48.922;12.198;2023-06-04T17:43:01;3.22;;;2.75;;
483;SDS011;228;48.922;12.198;2023-06-04T17:45:27;3.50;;;2.80;;
483;SDS011;228;48.922;12.198;2023-06-04T17:47:53;2.78;;;2.45;;
483;SDS011;228;48.922;12.198;2023-06-04T17:50:19;3.95;;;2.60;;
483;SDS011;228;48.922;12.198;2023-06-04T17:52:45;3.50;;;2.65;;
483;SDS011;228;48.922;12.198;2023-06-04T17:55:12;3.97;;;2.80;;
483;SDS011;228;48.922;12.198;2023-06-04T17:57:38;3.85;;;2.65;;
483;SDS011;228;48.922;12.198;2023-06-04T18:00:05;2.95;;;2.47;;
483;SDS011;228;48.922;12.198;2023-06-04T18:02:39;2.95;;;2.65;;
483;SDS011;228;48.922;12.198;2023-06-04T18:05:06;5.57;;;2.67;;
483;SDS011;228;48.922;12.198;2023-06-04T18:07:34;2.60;;;2.40;;
483;SDS011;228;48.922;12.198;2023-06-04T18:10:00;4.22;;;2.63;;
483;SDS011;228;48.922;12.198;2023-06-04T18:12:26;2.83;;;2.60;;
483;SDS011;228;48.922;12.198;2023-06-04T18:14:52;3.33;;;2.50;;
483;SDS011;228;48.922;12.198;2023-06-04T18:17:18;3.53;;;2.60;;
483;SDS011;228;48.922;12.198;2023-06-04T18:19:44;2.60;;;2.30;;
483;SDS011;228;48.922;12.198;2023-06-04T18:22:10;4.43;;;2.75;;
483;SDS011;228;48.922;12.198;2023-06-04T18:24:36;4.45;;;3.20;;
483;SDS011;228;48.922;12.198;2023-06-04T18:27:03;2.67;;;2.47;;
483;SDS011;228;48.922;12.198;2023-06-04T18:29:30;2.72;;;2.50;;
483;SDS011;228;48.922;12.198;2023-06-04T18:31:56;4.03;;;2.50;;
483;SDS011;228;48.922;12.198;2023-06-04T18:34:22;2.90;;;2.40;;
483;SDS011;228;48.922;12.198;2023-06-04T18:36:49;2.60;;;2.40;;
483;SDS011;228;48.922;12.198;2023-06-04T18:39:20;5.75;;;2.75;;
483;SDS011;228;48.922;12.198;2023-06-04T18:41:47;4.13;;;2.90;;
483;SDS011;228;48.922;12.198;2023-06-04T18:44:15;2.60;;;2.33;;
483;SDS011;228;48.922;12.198;2023-06-04T18:46:41;3.97;;;2.30;;
483;SDS011;228;48.922;12.198;2023-06-04T18:49:07;3.33;;;2.50;;
483;SDS011;228;48.922;12.198;2023-06-04T18:51:33;5.18;;;2.58;;
483;SDS011;228;48.922;12.198;2023-06-04T18:53:59;3.00;;;2.60;;
483;SDS011;228;48.922;12.198;2023-06-04T18:56:25;2.88;;;2.50;;
483;SDS011;228;48.922;12.198;2023-06-04T18:58:57;3.35;;;2.40;;
483;SDS011;228;48.922;12.198;2023-06-04T19:01:25;3.63;;;2.40;;
483;SDS011;228;48.922;12.198;2023-06-04T19:03:51;2.47;;;2.22;;
483;SDS011;228;48.922;12.198;2023-06-04T19:06:17;3.50;;;2.58;;
483;SDS011;228;48.922;12.198;2023-06-04T19:08:43;2.65;;;2.40;;
483;SDS011;228;48.922;12.198;2023-06-04T19:11:10;2.72;;;2.53;;
483;SDS011;228;48.922;12.198;2023-06-04T19:13:36;4.20;;;2.45;;
483;SDS011;228;48.922;12.198;2023-06-04T19:16:02;4.70;;;2.55;;
483;SDS011;228;48.922;12.198;2023-06-04T19:18:28;2.60;;;2.40;;
483;SDS011;228;48.922;12.198;2023-06-04T19:20:55;3.00;;;2.47;;
483;SDS011;228;48.922;12.198;2023-06-04T19:23:21;2.60;;;2.40;;
483;SDS011;228;48.922;12.198;2023-06-04T19:25:47;3.42;;;2.75;;
483;SDS011;228;48.922;12.198;2023-06-04T19:28:13;2.80;;;2.30;;
483;SDS011;228;48.922;12.198;2023-06-04T19:30:41;4.13;;;2.38;;
483;SDS011;228;48.922;12.198;2023-06-04T19:33:09;2.85;;;2.50;;
483;SDS011;228;48.922;12.198;2023-06-04T19:35:36;3.47;;;2.75;;
483;SDS011;228;48.922;12.198;2023-06-04T19:38:03;4.03;;;2.53;;
483;SDS011;228;48.922;12.198;2023-06-04T19:40:29;3.10;;;2.72;;